YA38 VQPR-VNKT
Flight info
| Callsign | YA38 |
|---|---|
| Flight time | N/A |
| Altitude | 34000 |
| Route | VQPR TMLR RATAN VNKT |
| Aircraft | A319/M-V/N |
Departure
| Time | N/A |
|---|---|
| Airport | Paro International Airport (VQPR) |
Arrival
| Time | 2026-04-30 13:26 |
|---|---|
| Airport | Tribhuvan International Airport (VNKT) |
| Time | Latitude | Longitude | Altitude | Speed | Heading |
|---|---|---|---|---|---|
| 2026-04-30 12:38 | 27.24263 | 87.57078 | 36035 ft | 336 kts | 280° |
| 2026-04-30 12:38 | 27.25262 | 87.51990 | 36034 ft | 336 kts | 280° |
| 2026-04-30 12:39 | 27.26265 | 87.46879 | 36034 ft | 336 kts | 280° |
| 2026-04-30 12:39 | 27.27258 | 87.41816 | 36034 ft | 336 kts | 280° |
| 2026-04-30 12:40 | 27.28258 | 87.36708 | 36034 ft | 336 kts | 280° |
| 2026-04-30 12:40 | 27.29257 | 87.31583 | 36035 ft | 336 kts | 280° |
| 2026-04-30 12:41 | 27.30248 | 87.26495 | 36034 ft | 336 kts | 279° |
| 2026-04-30 12:41 | 27.31244 | 87.21362 | 36034 ft | 336 kts | 279° |
| 2026-04-30 12:42 | 27.32237 | 87.16274 | 36034 ft | 336 kts | 280° |
| 2026-04-30 12:42 | 27.33245 | 87.11153 | 36034 ft | 335 kts | 280° |
| 2026-04-30 12:43 | 27.34258 | 87.06011 | 36038 ft | 347 kts | 280° |
| 2026-04-30 12:43 | 27.35320 | 87.00593 | 36037 ft | 362 kts | 280° |
| 2026-04-30 12:44 | 27.36426 | 86.94953 | 36037 ft | 377 kts | 279° |
| 2026-04-30 12:44 | 27.37561 | 86.89149 | 36036 ft | 390 kts | 279° |
| 2026-04-30 12:45 | 27.38741 | 86.83097 | 36035 ft | 402 kts | 280° |
| 2026-04-30 12:45 | 27.39926 | 86.77011 | 36034 ft | 403 kts | 280° |
| 2026-04-30 12:46 | 27.41128 | 86.70838 | 36034 ft | 403 kts | 280° |
| 2026-04-30 12:46 | 27.42321 | 86.64691 | 36034 ft | 403 kts | 279° |
| 2026-04-30 12:47 | 27.43504 | 86.58579 | 36034 ft | 403 kts | 280° |
| 2026-04-30 12:47 | 27.44648 | 86.52657 | 36034 ft | 403 kts | 280° |
| 2026-04-30 12:48 | 27.45778 | 86.46804 | 36034 ft | 403 kts | 280° |
| 2026-04-30 12:48 | 27.46962 | 86.40659 | 36034 ft | 403 kts | 280° |
| 2026-04-30 12:49 | 27.48139 | 86.34525 | 36035 ft | 403 kts | 279° |
| 2026-04-30 12:49 | 27.48992 | 86.28963 | 36022 ft | 400 kts | 268° |
| 2026-04-30 12:50 | 27.48576 | 86.25865 | 36030 ft | 399 kts | 252° |
| 2026-04-30 12:50 | 27.47381 | 86.23058 | 36039 ft | 402 kts | 239° |
| 2026-04-30 12:50 | 27.44285 | 86.17836 | 36034 ft | 402 kts | 238° |
| 2026-04-30 12:51 | 27.41175 | 86.12662 | 36034 ft | 402 kts | 238° |
| 2026-04-30 12:51 | 27.38069 | 86.07490 | 36034 ft | 402 kts | 238° |
| 2026-04-30 12:52 | 27.34934 | 86.02270 | 36034 ft | 402 kts | 238° |
| 2026-04-30 12:52 | 27.31979 | 85.97351 | 36034 ft | 402 kts | 238° |
| 2026-04-30 12:53 | 27.28854 | 85.92158 | 35905 ft | 401 kts | 238° |
| 2026-04-30 12:53 | 27.27304 | 85.89587 | 35185 ft | 405 kts | 238° |
| 2026-04-30 12:53 | 27.25737 | 85.86989 | 34081 ft | 413 kts | 238° |
| 2026-04-30 12:54 | 27.24114 | 85.84308 | 32972 ft | 420 kts | 238° |
| 2026-04-30 12:54 | 27.22473 | 85.81598 | 32087 ft | 420 kts | 239° |
| 2026-04-30 12:54 | 27.20860 | 85.78934 | 31402 ft | 417 kts | 239° |
| 2026-04-30 12:54 | 27.19233 | 85.76244 | 30734 ft | 413 kts | 239° |
| 2026-04-30 12:55 | 27.17637 | 85.73604 | 30039 ft | 411 kts | 239° |
| 2026-04-30 12:55 | 27.16055 | 85.70987 | 29407 ft | 407 kts | 239° |
| 2026-04-30 12:55 | 27.14499 | 85.68416 | 29140 ft | 395 kts | 240° |
| 2026-04-30 12:55 | 27.13177 | 85.65758 | 28896 ft | 379 kts | 249° |
| 2026-04-30 12:56 | 27.12303 | 85.63042 | 28677 ft | 365 kts | 258° |
| 2026-04-30 12:56 | 27.11822 | 85.60291 | 28416 ft | 354 kts | 265° |
| 2026-04-30 12:56 | 27.11689 | 85.57573 | 27976 ft | 349 kts | 271° |
| 2026-04-30 12:56 | 27.11689 | 85.54887 | 27454 ft | 348 kts | 272° |
| 2026-04-30 12:57 | 27.11705 | 85.52173 | 26931 ft | 347 kts | 272° |
| 2026-04-30 12:57 | 27.11719 | 85.49466 | 26430 ft | 346 kts | 272° |
| 2026-04-30 12:57 | 27.11728 | 85.46806 | 25945 ft | 345 kts | 273° |
| 2026-04-30 12:57 | 27.11733 | 85.44121 | 25454 ft | 343 kts | 273° |
| 2026-04-30 12:58 | 27.11736 | 85.41460 | 24968 ft | 342 kts | 273° |
| 2026-04-30 12:58 | 27.11738 | 85.38820 | 24488 ft | 341 kts | 273° |
| 2026-04-30 12:58 | 27.11738 | 85.36150 | 24062 ft | 338 kts | 273° |
| 2026-04-30 12:58 | 27.11738 | 85.33539 | 23616 ft | 336 kts | 272° |
| 2026-04-30 12:59 | 27.11761 | 85.30938 | 23143 ft | 334 kts | 276° |
| 2026-04-30 12:59 | 27.12092 | 85.28387 | 22662 ft | 331 kts | 285° |
| 2026-04-30 12:59 | 27.12810 | 85.25939 | 22190 ft | 327 kts | 295° |
| 2026-04-30 12:59 | 27.13864 | 85.23714 | 21727 ft | 325 kts | 304° |
| 2026-04-30 13:00 | 27.15219 | 85.21730 | 21262 ft | 322 kts | 313° |
| 2026-04-30 13:00 | 27.16840 | 85.20031 | 20801 ft | 321 kts | 322° |
| 2026-04-30 13:00 | 27.18679 | 85.18667 | 20346 ft | 319 kts | 332° |
| 2026-04-30 13:00 | 27.20674 | 85.17666 | 19893 ft | 318 kts | 340° |
| 2026-04-30 13:01 | 27.22809 | 85.17036 | 19438 ft | 317 kts | 349° |
| 2026-04-30 13:01 | 27.24978 | 85.16803 | 18992 ft | 315 kts | 356° |
| 2026-04-30 13:01 | 27.27144 | 85.16399 | 18412 ft | 317 kts | 338° |
| 2026-04-30 13:01 | 27.28952 | 85.15073 | 17997 ft | 317 kts | 316° |
| 2026-04-30 13:02 | 27.30198 | 85.13046 | 17573 ft | 319 kts | 295° |
| 2026-04-30 13:02 | 27.30681 | 85.10648 | 17043 ft | 326 kts | 276° |
| 2026-04-30 13:02 | 27.30688 | 85.08046 | 16242 ft | 337 kts | 271° |
| 2026-04-30 13:02 | 27.30625 | 85.05414 | 15368 ft | 349 kts | 270° |
| 2026-04-30 13:03 | 27.30569 | 85.02645 | 14512 ft | 358 kts | 270° |
| 2026-04-30 13:03 | 27.30485 | 84.99860 | 13886 ft | 358 kts | 262° |
| 2026-04-30 13:03 | 27.29730 | 84.97222 | 13343 ft | 353 kts | 239° |
| 2026-04-30 13:03 | 27.28231 | 84.95160 | 12866 ft | 345 kts | 218° |
| 2026-04-30 13:04 | 27.26179 | 84.93877 | 12348 ft | 339 kts | 195° |
| 2026-04-30 13:04 | 27.23882 | 84.93572 | 11796 ft | 334 kts | 173° |
| 2026-04-30 13:04 | 27.21671 | 84.94289 | 11185 ft | 332 kts | 150° |
| 2026-04-30 13:04 | 27.19933 | 84.95895 | 10640 ft | 327 kts | 127° |
| 2026-04-30 13:05 | 27.18957 | 84.98174 | 10527 ft | 325 kts | 102° |
| 2026-04-30 13:05 | 27.18725 | 85.00707 | 10524 ft | 326 kts | 91° |
| 2026-04-30 13:05 | 27.18674 | 85.03233 | 10520 ft | 325 kts | 89° |
| 2026-04-30 13:06 | 27.20167 | 85.07886 | 10520 ft | 325 kts | 49° |
| 2026-04-30 13:06 | 27.21709 | 85.09734 | 10519 ft | 325 kts | 45° |
| 2026-04-30 13:06 | 27.23293 | 85.11523 | 10518 ft | 325 kts | 45° |
| 2026-04-30 13:06 | 27.24895 | 85.13320 | 10518 ft | 325 kts | 45° |
| 2026-04-30 13:07 | 27.26493 | 85.15112 | 10514 ft | 322 kts | 45° |
| 2026-04-30 13:07 | 27.28066 | 85.16759 | 10507 ft | 305 kts | 36° |
| 2026-04-30 13:07 | 27.29848 | 85.17921 | 10518 ft | 292 kts | 25° |
| 2026-04-30 13:07 | 27.31676 | 85.18933 | 10517 ft | 294 kts | 28° |
| 2026-04-30 13:08 | 27.33371 | 85.20157 | 10519 ft | 294 kts | 37° |
| 2026-04-30 13:08 | 27.34900 | 85.21684 | 10519 ft | 294 kts | 46° |
| 2026-04-30 13:08 | 27.36185 | 85.23453 | 10520 ft | 294 kts | 55° |
| 2026-04-30 13:08 | 27.37209 | 85.25438 | 10520 ft | 295 kts | 64° |
| 2026-04-30 13:09 | 27.37953 | 85.27601 | 10520 ft | 295 kts | 73° |
| 2026-04-30 13:09 | 27.38384 | 85.29827 | 10519 ft | 295 kts | 82° |
| 2026-04-30 13:09 | 27.38508 | 85.32139 | 10519 ft | 295 kts | 91° |
| 2026-04-30 13:09 | 27.38313 | 85.34441 | 10519 ft | 296 kts | 99° |
| 2026-04-30 13:10 | 27.37811 | 85.36671 | 10519 ft | 296 kts | 108° |
| 2026-04-30 13:10 | 27.37008 | 85.38806 | 10519 ft | 296 kts | 117° |
| 2026-04-30 13:10 | 27.35944 | 85.40752 | 10519 ft | 297 kts | 126° |
| 2026-04-30 13:10 | 27.34590 | 85.42538 | 10518 ft | 297 kts | 135° |
| 2026-04-30 13:11 | 27.33050 | 85.44028 | 10518 ft | 297 kts | 143° |
| 2026-04-30 13:11 | 27.31297 | 85.45258 | 10471 ft | 292 kts | 152° |
| 2026-04-30 13:11 | 27.29454 | 85.46152 | 10033 ft | 292 kts | 161° |
| 2026-04-30 13:11 | 27.27497 | 85.46721 | 9573 ft | 293 kts | 170° |
| 2026-04-30 13:12 | 27.25500 | 85.46950 | 9186 ft | 290 kts | 178° |
| 2026-04-30 13:12 | 27.23491 | 85.46821 | 8787 ft | 288 kts | 187° |
| 2026-04-30 13:12 | 27.21543 | 85.46378 | 8527 ft | 284 kts | 195° |
| 2026-04-30 13:13 | 27.17909 | 85.44569 | 8518 ft | 287 kts | 212° |
| 2026-04-30 13:13 | 27.16312 | 85.43233 | 8517 ft | 287 kts | 221° |
| 2026-04-30 13:13 | 27.13732 | 85.39833 | 8516 ft | 287 kts | 238° |
| 2026-04-30 13:14 | 27.12811 | 85.37866 | 8516 ft | 287 kts | 246° |
| 2026-04-30 13:14 | 27.12151 | 85.35738 | 8516 ft | 287 kts | 255° |
| 2026-04-30 13:14 | 27.11713 | 85.31308 | 8517 ft | 287 kts | 272° |
| 2026-04-30 13:15 | 27.11932 | 85.29103 | 8517 ft | 287 kts | 281° |
| 2026-04-30 13:15 | 27.13234 | 85.24882 | 8517 ft | 287 kts | 297° |
| 2026-04-30 13:15 | 27.14295 | 85.22965 | 8517 ft | 287 kts | 306° |
| 2026-04-30 13:16 | 27.15603 | 85.21278 | 8510 ft | 287 kts | 320° |
| 2026-04-30 13:16 | 27.17330 | 85.20229 | 8521 ft | 287 kts | 342° |
| 2026-04-30 13:16 | 27.19263 | 85.19633 | 8519 ft | 287 kts | 348° |
| 2026-04-30 13:17 | 27.23237 | 85.19687 | 8520 ft | 287 kts | 5° |
| 2026-04-30 13:17 | 27.25218 | 85.19886 | 8518 ft | 287 kts | 5° |
| 2026-04-30 13:17 | 27.29182 | 85.20291 | 8517 ft | 286 kts | 5° |
| 2026-04-30 13:18 | 27.31164 | 85.20502 | 8517 ft | 287 kts | 6° |
| 2026-04-30 13:18 | 27.35118 | 85.20908 | 8518 ft | 287 kts | 9° |
| 2026-04-30 13:18 | 27.37072 | 85.21396 | 8518 ft | 287 kts | 15° |
| 2026-04-30 13:19 | 27.38967 | 85.22080 | 8518 ft | 287 kts | 19° |
| 2026-04-30 13:19 | 27.40814 | 85.22849 | 8513 ft | 276 kts | 21° |
| 2026-04-30 13:19 | 27.42507 | 85.23592 | 8509 ft | 249 kts | 21° |
| 2026-04-30 13:19 | 27.44038 | 85.24277 | 8508 ft | 227 kts | 21° |
| 2026-04-30 13:20 | 27.45471 | 85.24747 | 8496 ft | 207 kts | 7° |
| 2026-04-30 13:20 | 27.46852 | 85.24796 | 8423 ft | 191 kts | 353° |
| 2026-04-30 13:20 | 27.48152 | 85.24504 | 7999 ft | 195 kts | 345° |
| 2026-04-30 13:20 | 27.49458 | 85.24095 | 7586 ft | 197 kts | 344° |
| 2026-04-30 13:21 | 27.50723 | 85.23723 | 7514 ft | 175 kts | 348° |
| 2026-04-30 13:21 | 27.51860 | 85.23574 | 7493 ft | 155 kts | 359° |
| 2026-04-30 13:21 | 27.52913 | 85.23640 | 7506 ft | 150 kts | 8° |
| 2026-04-30 13:22 | 27.54916 | 85.24320 | 7519 ft | 150 kts | 26° |
| 2026-04-30 13:22 | 27.55798 | 85.24897 | 7394 ft | 146 kts | 34° |
| 2026-04-30 13:22 | 27.57371 | 85.26351 | 6595 ft | 148 kts | 40° |
| 2026-04-30 13:23 | 27.58143 | 85.27101 | 6210 ft | 148 kts | 43° |
| 2026-04-30 13:23 | 27.59428 | 85.28868 | 5451 ft | 146 kts | 58° |
| 2026-04-30 13:24 | 27.60578 | 85.30705 | 4947 ft | 143 kts | 48° |
| 2026-04-30 13:24 | 27.62103 | 85.32172 | 5111 ft | 145 kts | 31° |
| 2026-04-30 13:25 | 27.63755 | 85.33174 | 5389 ft | 147 kts | 24° |
| 2026-04-30 13:25 | 27.65621 | 85.34077 | 5039 ft | 145 kts | 21° |
| 2026-04-30 13:26 | 27.68413 | 85.35349 | 4365 ft | 143 kts | 22° |
| 2026-04-30 13:26 | 27.69788 | 85.35976 | 4391 ft | 36 kts | 23° |
| 2026-04-30 13:27 | 27.70246 | 85.36186 | 4400 ft | 29 kts | 23° |
| 2026-04-30 13:28 | 27.70567 | 85.36247 | 4398 ft | 9 kts | 258° |
| 2026-04-30 13:28 | 27.70453 | 85.36161 | 4400 ft | 10 kts | 203° |
| 2026-04-30 13:28 | 27.70383 | 85.36129 | 4401 ft | 10 kts | 201° |
| 2026-04-30 13:29 | 27.70308 | 85.36095 | 4402 ft | 12 kts | 201° |
| 2026-04-30 13:31 | 27.70208 | 85.36052 | 4402 ft | 14 kts | 202° |
| 2026-04-30 13:31 | 27.70176 | 85.35941 | 4398 ft | 0 kts | 288° |